Terminal Aerodrome Forecast
Issued by NWS Cleveland, OH

Home | Current Version | Previous Version | Text Only | Print | Product List | Glossary Off
Versions: 1 2 3 4 5 6 7 8 9 10 11 12 13 14 15 16

000
FTUS41 KCLE 081100
TAFTOL
TAF
KTOL 081120Z 0812/0912 22008KT 4SM BR BKN006 OVC012
     FM081330 26014G22KT 5SM -SHRA BR BKN012 OVC025
      TEMPO 0814/0816 3SM -TSRA BR SCT008 OVC012CB
     FM081700 24012G20KT P6SM BKN035
     FM082000 27015G25KT P6SM VCTS BKN040CB OVC100
     FM090000 28006KT P6SM FEW100 SCT250=

USA.gov is the U.S. government's official web portal to all federal, state and local government web resources and services.